Urbandale, Illinois
Current Conditions -  °F | °C
As of 10:55 AM on Friday 28 Nov 2014 (Local Time) from KCIR Reporting Station
Clear Clear  
Wind Chill: 35°   Ceiling: Unl
Heat Index: 42°   Visibility: 10mi
Dew Point: 31°   Wind: 10mph
Humidity: 67%   Direction: 160°SSE
Pressure: 30.31"   Gusts: 20mph
Location:  37.048°N, 89.2036°W
Report Text: KCIR 281655Z AUTO 16009G17KT 10SM CLR 05/00 A3031 RMK AO2 T00531004
Loading
Personal Weather Stations






























Interactive Weather Map New forecast layout! Learn more

10-Day Weather Forecast

Advertisements
Track Severe Weather on mobile